Morris, IL (60450)

01:11 AM CDT die 27o May, anno 2017 (GMT -0500)
Bedford Road | | Change Station

Elev 0 ft 41.37 °N, 88.43 °W | Updated 10 minutes ago

Aequaliter Nubila
Aequaliter Nubila
58.5 °F
Feels Like 58.5 °F
N
1.2
Ventus Variabilis Ventus from Inter Aquilonem et Zephyrus
Gusts 2.5 mph

Hodie
High -- | Low -- °F
--% Chance of Precip.
Yesterday
High -- | Low -- °F
Precip. -- in
Pressio 29.84 in
Visibilitas 4.0 milia passuum
Clouds Nubes Dispersae 900 ft
Aequaliter Nubila 1800 ft
Frigus in quo Ros apparet 57 °F
Umor 94%
Rainfall 0.00 in
Snow Depth Not available.
5:25 AM 8:17 PM
Waxing Crescent, 3% visible
METAR KC09 270555Z AUTO 00000KT 4SM BR SCT009 OVC018 15/14 A2984 RMK AO2 T01450135 10183 20140 402510117
Pressio 29.84 in
Visibilitas 4.0 milia passuum
Clouds Nubes Dispersae 900 ft
Aequaliter Nubila 1800 ft
Frigus in quo Ros apparet 57 °F
Umor 94%
Rainfall 0.00 in
Snow Depth Not available.
5:25 AM 8:17 PM
Waxing Crescent, 3% visible
METAR KC09 270555Z AUTO 00000KT 4SM BR SCT009 OVC018 15/14 A2984 RMK AO2 T01450135 10183 20140 402510117

Get Severe Weather Alerts

Thanks for signing up!

Be on the lookout for a verification email in your inbox.

You'll start receiving the daily forecast at 6 AM.

×

10-Day Weather Forecast

Almanac

Astronomy

May. 27, 2017 Rise Set
Actual Time
Civil Twilight
Nautical Twilight
Astronomical Twilight
Moon
Length Of Visible Light
Length of Day
Tomorrow will be .
, % of the Moon is Illuminated

Today's Extremes

State Highs State Lows

Community

WunderPhotos

Category 6

Welcome to Category 6. This is the collective home for Weather Underground's featured writeups by Dr. Jeff Masters (right), Bob Henson (left), Chris Burt, and other regular contributors.

Nearby

Air Quality

  Air Quality AQ Index Pollutant
Not available.

Snow Depth

Station Depth Elevation

Earthquake Activity

City Distance Mag. Time & Date
Minimum magnitude displayed is 2.5.

Coastal Water Temperatures

Locus Calor

Stations

Nearby Weather Stations

Station Location Temp Frigus Venti Frigus in quo Ros apparet Umor Ventus Precip. Elev Renovata Type
                   

Watches & Warnings

There are currently no watches in effect.